sensor_id;sensor_type;location;lat;lon;timestamp;P1;durP1;ratioP1;P2;durP2;ratioP2
77287;SDS011;66345;42.694;23.346;2023-03-23T00:02:26;44.95;;;25.83;;
77287;SDS011;66345;42.694;23.346;2023-03-23T00:04:53;48.25;;;24.20;;
77287;SDS011;66345;42.694;23.346;2023-03-23T00:07:20;51.30;;;25.88;;
77287;SDS011;66345;42.694;23.346;2023-03-23T00:09:47;55.10;;;26.93;;
77287;SDS011;66345;42.694;23.346;2023-03-23T00:12:18;48.08;;;25.08;;
77287;SDS011;66345;42.694;23.346;2023-03-23T00:14:44;56.08;;;26.08;;
77287;SDS011;66345;42.694;23.346;2023-03-23T00:17:10;49.90;;;25.53;;
77287;SDS011;66345;42.694;23.346;2023-03-23T00:19:38;49.67;;;25.15;;
77287;SDS011;66345;42.694;23.346;2023-03-23T00:22:16;43.88;;;24.48;;
77287;SDS011;66345;42.694;23.346;2023-03-23T00:24:44;46.73;;;24.70;;
77287;SDS011;66345;42.694;23.346;2023-03-23T00:27:10;51.63;;;26.95;;
77287;SDS011;66345;42.694;23.346;2023-03-23T00:29:39;50.17;;;25.25;;
77287;SDS011;66345;42.694;23.346;2023-03-23T00:32:06;48.85;;;25.30;;
77287;SDS011;66345;42.694;23.346;2023-03-23T00:34:31;44.83;;;25.73;;
77287;SDS011;66345;42.694;23.346;2023-03-23T00:36:58;51.50;;;25.42;;
77287;SDS011;66345;42.694;23.346;2023-03-23T00:39:26;62.97;;;29.67;;
77287;SDS011;66345;42.694;23.346;2023-03-23T00:41:53;54.53;;;28.65;;
77287;SDS011;66345;42.694;23.346;2023-03-23T00:44:25;62.58;;;29.98;;
77287;SDS011;66345;42.694;23.346;2023-03-23T00:46:55;61.80;;;29.63;;
77287;SDS011;66345;42.694;23.346;2023-03-23T00:49:21;59.45;;;28.23;;
77287;SDS011;66345;42.694;23.346;2023-03-23T00:51:50;54.83;;;28.38;;
77287;SDS011;66345;42.694;23.346;2023-03-23T00:54:16;55.50;;;28.08;;
77287;SDS011;66345;42.694;23.346;2023-03-23T00:56:42;56.10;;;27.97;;
77287;SDS011;66345;42.694;23.346;2023-03-23T00:59:07;50.37;;;26.13;;
77287;SDS011;66345;42.694;23.346;2023-03-23T01:01:33;54.78;;;27.15;;
77287;SDS011;66345;42.694;23.346;2023-03-23T01:04:00;55.95;;;27.42;;
77287;SDS011;66345;42.694;23.346;2023-03-23T01:06:29;53.20;;;26.67;;
77287;SDS011;66345;42.694;23.346;2023-03-23T01:08:56;52.60;;;25.60;;
77287;SDS011;66345;42.694;23.346;2023-03-23T01:11:22;47.60;;;23.58;;
77287;SDS011;66345;42.694;23.346;2023-03-23T01:13:48;49.65;;;24.90;;
77287;SDS011;66345;42.694;23.346;2023-03-23T01:16:14;47.13;;;22.47;;
77287;SDS011;66345;42.694;23.346;2023-03-23T01:18:39;55.47;;;25.90;;
77287;SDS011;66345;42.694;23.346;2023-03-23T01:21:09;67.63;;;29.67;;
77287;SDS011;66345;42.694;23.346;2023-03-23T01:23:37;64.38;;;28.80;;
77287;SDS011;66345;42.694;23.346;2023-03-23T01:26:04;66.43;;;28.13;;
77287;SDS011;66345;42.694;23.346;2023-03-23T01:28:34;62.47;;;27.65;;
77287;SDS011;66345;42.694;23.346;2023-03-23T01:31:04;54.38;;;25.58;;
77287;SDS011;66345;42.694;23.346;2023-03-23T01:33:33;62.15;;;27.02;;
77287;SDS011;66345;42.694;23.346;2023-03-23T01:36:06;53.83;;;25.20;;
77287;SDS011;66345;42.694;23.346;2023-03-23T01:38:35;55.57;;;25.77;;
77287;SDS011;66345;42.694;23.346;2023-03-23T01:41:01;59.33;;;26.90;;
77287;SDS011;66345;42.694;23.346;2023-03-23T01:43:27;58.35;;;26.00;;
77287;SDS011;66345;42.694;23.346;2023-03-23T01:45:53;51.77;;;23.80;;
77287;SDS011;66345;42.694;23.346;2023-03-23T01:48:27;50.50;;;24.88;;
77287;SDS011;66345;42.694;23.346;2023-03-23T01:50:55;53.80;;;24.67;;
77287;SDS011;66345;42.694;23.346;2023-03-23T01:53:26;49.80;;;24.83;;
77287;SDS011;66345;42.694;23.346;2023-03-23T01:55:55;49.30;;;23.63;;
77287;SDS011;66345;42.694;23.346;2023-03-23T01:58:25;45.40;;;22.48;;
77287;SDS011;66345;42.694;23.346;2023-03-23T02:00:53;48.85;;;22.92;;
77287;SDS011;66345;42.694;23.346;2023-03-23T02:03:20;47.33;;;22.60;;
77287;SDS011;66345;42.694;23.346;2023-03-23T02:05:48;46.07;;;21.37;;
77287;SDS011;66345;42.694;23.346;2023-03-23T02:08:15;42.63;;;22.45;;
77287;SDS011;66345;42.694;23.346;2023-03-23T02:10:43;43.97;;;22.67;;
77287;SDS011;66345;42.694;23.346;2023-03-23T02:13:10;50.55;;;23.20;;
77287;SDS011;66345;42.694;23.346;2023-03-23T02:19:07;48.33;;;24.40;;
77287;SDS011;66345;42.694;23.346;2023-03-23T02:21:52;54.35;;;24.63;;
77287;SDS011;66345;42.694;23.346;2023-03-23T02:24:30;46.72;;;22.25;;
77287;SDS011;66345;42.694;23.346;2023-03-23T02:27:01;49.08;;;23.45;;
77287;SDS011;66345;42.694;23.346;2023-03-23T02:32:10;50.53;;;24.67;;
77287;SDS011;66345;42.694;23.346;2023-03-23T02:34:44;49.17;;;23.30;;
77287;SDS011;66345;42.694;23.346;2023-03-23T02:37:16;49.63;;;24.17;;
77287;SDS011;66345;42.694;23.346;2023-03-23T02:39:52;49.90;;;22.50;;
77287;SDS011;66345;42.694;23.346;2023-03-23T02:42:27;48.67;;;23.00;;
77287;SDS011;66345;42.694;23.346;2023-03-23T02:44:56;41.80;;;22.30;;
77287;SDS011;66345;42.694;23.346;2023-03-23T02:47:29;43.15;;;21.38;;
77287;SDS011;66345;42.694;23.346;2023-03-23T02:49:55;41.00;;;21.53;;
77287;SDS011;66345;42.694;23.346;2023-03-23T02:52:27;38.88;;;18.67;;
77287;SDS011;66345;42.694;23.346;2023-03-23T02:54:55;34.08;;;16.13;;
77287;SDS011;66345;42.694;23.346;2023-03-23T02:57:23;27.83;;;14.90;;
77287;SDS011;66345;42.694;23.346;2023-03-23T02:59:51;29.45;;;15.05;;
77287;SDS011;66345;42.694;23.346;2023-03-23T03:02:35;26.03;;;13.07;;
77287;SDS011;66345;42.694;23.346;2023-03-23T03:10:44;24.10;;;11.27;;
77287;SDS011;66345;42.694;23.346;2023-03-23T03:16:00;18.65;;;9.38;;
77287;SDS011;66345;42.694;23.346;2023-03-23T03:21:10;19.83;;;9.63;;
77287;SDS011;66345;42.694;23.346;2023-03-23T03:23:39;20.73;;;10.60;;
77287;SDS011;66345;42.694;23.346;2023-03-23T03:26:07;20.10;;;9.10;;
77287;SDS011;66345;42.694;23.346;2023-03-23T03:28:37;18.33;;;9.02;;
77287;SDS011;66345;42.694;23.346;2023-03-23T03:31:03;20.42;;;9.88;;
77287;SDS011;66345;42.694;23.346;2023-03-23T03:33:30;18.80;;;9.13;;
77287;SDS011;66345;42.694;23.346;2023-03-23T03:36:00;19.08;;;10.02;;
77287;SDS011;66345;42.694;23.346;2023-03-23T03:38:28;19.15;;;9.73;;
77287;SDS011;66345;42.694;23.346;2023-03-23T03:40:54;20.53;;;9.63;;
77287;SDS011;66345;42.694;23.346;2023-03-23T03:43:20;17.00;;;9.40;;
77287;SDS011;66345;42.694;23.346;2023-03-23T03:45:45;18.17;;;9.30;;
77287;SDS011;66345;42.694;23.346;2023-03-23T03:48:11;19.40;;;9.82;;
77287;SDS011;66345;42.694;23.346;2023-03-23T03:50:37;17.77;;;9.00;;
77287;SDS011;66345;42.694;23.346;2023-03-23T03:53:04;20.10;;;10.20;;
77287;SDS011;66345;42.694;23.346;2023-03-23T03:55:31;16.38;;;9.05;;
77287;SDS011;66345;42.694;23.346;2023-03-23T03:58:00;17.35;;;8.60;;
77287;SDS011;66345;42.694;23.346;2023-03-23T04:00:29;16.03;;;9.13;;
77287;SDS011;66345;42.694;23.346;2023-03-23T04:02:55;19.92;;;9.27;;
77287;SDS011;66345;42.694;23.346;2023-03-23T04:05:21;21.07;;;10.07;;
77287;SDS011;66345;42.694;23.346;2023-03-23T04:07:47;18.02;;;10.02;;
77287;SDS011;66345;42.694;23.346;2023-03-23T04:10:17;20.50;;;9.60;;
77287;SDS011;66345;42.694;23.346;2023-03-23T04:12:46;20.88;;;9.90;;
77287;SDS011;66345;42.694;23.346;2023-03-23T04:15:12;22.60;;;9.80;;
77287;SDS011;66345;42.694;23.346;2023-03-23T04:17:38;23.73;;;10.00;;
77287;SDS011;66345;42.694;23.346;2023-03-23T04:20:05;24.27;;;9.70;;
77287;SDS011;66345;42.694;23.346;2023-03-23T04:22:37;20.33;;;9.77;;
77287;SDS011;66345;42.694;23.346;2023-03-23T04:25:03;18.10;;;10.23;;
77287;SDS011;66345;42.694;23.346;2023-03-23T04:27:31;23.50;;;10.32;;
77287;SDS011;66345;42.694;23.346;2023-03-23T04:29:57;23.60;;;10.57;;
77287;SDS011;66345;42.694;23.346;2023-03-23T04:32:27;22.05;;;10.35;;
77287;SDS011;66345;42.694;23.346;2023-03-23T04:34:54;23.95;;;10.82;;
77287;SDS011;66345;42.694;23.346;2023-03-23T04:37:22;22.27;;;10.38;;
77287;SDS011;66345;42.694;23.346;2023-03-23T04:39:54;21.27;;;10.63;;
77287;SDS011;66345;42.694;23.346;2023-03-23T04:42:28;24.03;;;10.77;;
77287;SDS011;66345;42.694;23.346;2023-03-23T04:44:55;20.33;;;10.55;;
77287;SDS011;66345;42.694;23.346;2023-03-23T04:47:22;25.08;;;11.02;;
77287;SDS011;66345;42.694;23.346;2023-03-23T04:49:47;17.05;;;9.60;;
77287;SDS011;66345;42.694;23.346;2023-03-23T04:52:13;22.38;;;11.05;;
77287;SDS011;66345;42.694;23.346;2023-03-23T04:54:39;19.53;;;10.10;;
77287;SDS011;66345;42.694;23.346;2023-03-23T04:57:04;22.92;;;10.85;;
77287;SDS011;66345;42.694;23.346;2023-03-23T04:59:30;21.43;;;10.27;;
77287;SDS011;66345;42.694;23.346;2023-03-23T05:01:56;18.27;;;10.50;;
77287;SDS011;66345;42.694;23.346;2023-03-23T05:04:22;19.85;;;10.52;;
77287;SDS011;66345;42.694;23.346;2023-03-23T05:06:50;22.17;;;11.30;;
77287;SDS011;66345;42.694;23.346;2023-03-23T05:09:16;23.02;;;12.02;;
77287;SDS011;66345;42.694;23.346;2023-03-23T05:11:41;22.63;;;12.20;;
77287;SDS011;66345;42.694;23.346;2023-03-23T05:14:06;22.80;;;12.03;;
77287;SDS011;66345;42.694;23.346;2023-03-23T05:16:32;23.60;;;11.97;;
77287;SDS011;66345;42.694;23.346;2023-03-23T05:18:57;23.17;;;11.40;;
77287;SDS011;66345;42.694;23.346;2023-03-23T05:21:23;28.35;;;12.52;;
77287;SDS011;66345;42.694;23.346;2023-03-23T05:23:48;25.37;;;12.83;;
77287;SDS011;66345;42.694;23.346;2023-03-23T05:26:19;25.10;;;12.15;;
77287;SDS011;66345;42.694;23.346;2023-03-23T05:28:54;22.17;;;12.40;;
77287;SDS011;66345;42.694;23.346;2023-03-23T05:31:20;26.83;;;13.55;;
77287;SDS011;66345;42.694;23.346;2023-03-23T05:33:46;27.40;;;14.02;;
77287;SDS011;66345;42.694;23.346;2023-03-23T05:36:12;29.03;;;13.97;;
77287;SDS011;66345;42.694;23.346;2023-03-23T05:38:41;24.48;;;14.55;;
77287;SDS011;66345;42.694;23.346;2023-03-23T05:41:14;31.73;;;14.82;;
77287;SDS011;66345;42.694;23.346;2023-03-23T05:43:39;32.27;;;14.70;;
77287;SDS011;66345;42.694;23.346;2023-03-23T05:46:05;32.67;;;16.10;;
77287;SDS011;66345;42.694;23.346;2023-03-23T05:48:32;29.23;;;15.50;;
77287;SDS011;66345;42.694;23.346;2023-03-23T05:50:58;29.33;;;15.50;;
77287;SDS011;66345;42.694;23.346;2023-03-23T05:53:24;29.03;;;14.63;;
77287;SDS011;66345;42.694;23.346;2023-03-23T05:55:49;27.65;;;15.50;;
77287;SDS011;66345;42.694;23.346;2023-03-23T05:58:15;29.07;;;14.50;;
77287;SDS011;66345;42.694;23.346;2023-03-23T06:00:40;29.77;;;15.13;;
77287;SDS011;66345;42.694;23.346;2023-03-23T06:03:06;30.70;;;15.27;;
77287;SDS011;66345;42.694;23.346;2023-03-23T06:05:31;37.67;;;16.87;;
77287;SDS011;66345;42.694;23.346;2023-03-23T06:07:57;29.58;;;15.98;;
77287;SDS011;66345;42.694;23.346;2023-03-23T06:10:23;33.50;;;16.05;;
77287;SDS011;66345;42.694;23.346;2023-03-23T06:12:49;33.03;;;16.70;;
77287;SDS011;66345;42.694;23.346;2023-03-23T06:15:16;27.77;;;15.40;;
77287;SDS011;66345;42.694;23.346;2023-03-23T06:17:42;32.22;;;16.33;;
77287;SDS011;66345;42.694;23.346;2023-03-23T06:20:08;29.27;;;15.87;;
77287;SDS011;66345;42.694;23.346;2023-03-23T06:22:38;31.92;;;16.90;;
77287;SDS011;66345;42.694;23.346;2023-03-23T06:25:06;33.47;;;15.55;;
77287;SDS011;66345;42.694;23.346;2023-03-23T06:27:33;36.35;;;16.60;;
77287;SDS011;66345;42.694;23.346;2023-03-23T06:29:58;30.20;;;15.83;;
77287;SDS011;66345;42.694;23.346;2023-03-23T06:32:24;37.63;;;16.42;;
77287;SDS011;66345;42.694;23.346;2023-03-23T06:34:53;31.33;;;14.80;;
77287;SDS011;66345;42.694;23.346;2023-03-23T06:37:19;29.33;;;15.18;;
77287;SDS011;66345;42.694;23.346;2023-03-23T06:39:45;28.75;;;15.82;;
77287;SDS011;66345;42.694;23.346;2023-03-23T06:42:11;31.00;;;16.37;;
77287;SDS011;66345;42.694;23.346;2023-03-23T06:44:37;27.02;;;14.85;;
77287;SDS011;66345;42.694;23.346;2023-03-23T06:47:03;21.85;;;13.57;;
77287;SDS011;66345;42.694;23.346;2023-03-23T06:49:29;26.10;;;14.88;;
77287;SDS011;66345;42.694;23.346;2023-03-23T06:51:54;24.98;;;14.68;;
77287;SDS011;66345;42.694;23.346;2023-03-23T06:54:25;27.70;;;15.27;;
77287;SDS011;66345;42.694;23.346;2023-03-23T06:56:51;30.97;;;16.37;;
77287;SDS011;66345;42.694;23.346;2023-03-23T06:59:16;29.23;;;15.70;;
77287;SDS011;66345;42.694;23.346;2023-03-23T07:01:42;30.07;;;15.07;;
77287;SDS011;66345;42.694;23.346;2023-03-23T07:04:07;26.53;;;14.40;;
77287;SDS011;66345;42.694;23.346;2023-03-23T07:06:32;25.93;;;15.70;;
77287;SDS011;66345;42.694;23.346;2023-03-23T07:08:58;25.23;;;14.57;;
77287;SDS011;66345;42.694;23.346;2023-03-23T07:11:23;21.20;;;13.70;;
77287;SDS011;66345;42.694;23.346;2023-03-23T07:13:49;22.43;;;13.20;;
77287;SDS011;66345;42.694;23.346;2023-03-23T07:16:15;23.80;;;14.88;;
77287;SDS011;66345;42.694;23.346;2023-03-23T07:18:42;17.83;;;12.70;;
77287;SDS011;66345;42.694;23.346;2023-03-23T07:21:08;24.08;;;13.20;;
77287;SDS011;66345;42.694;23.346;2023-03-23T07:23:33;19.67;;;13.03;;
77287;SDS011;66345;42.694;23.346;2023-03-23T07:25:58;23.83;;;15.40;;
77287;SDS011;66345;42.694;23.346;2023-03-23T07:28:24;22.80;;;15.52;;
77287;SDS011;66345;42.694;23.346;2023-03-23T07:30:50;18.93;;;12.30;;
77287;SDS011;66345;42.694;23.346;2023-03-23T07:33:16;19.20;;;14.10;;
77287;SDS011;66345;42.694;23.346;2023-03-23T07:35:42;20.63;;;14.27;;
77287;SDS011;66345;42.694;23.346;2023-03-23T07:38:07;18.80;;;13.33;;
77287;SDS011;66345;42.694;23.346;2023-03-23T07:40:33;24.02;;;15.13;;
77287;SDS011;66345;42.694;23.346;2023-03-23T07:43:01;20.60;;;14.60;;
77287;SDS011;66345;42.694;23.346;2023-03-23T07:45:28;21.92;;;15.05;;
77287;SDS011;66345;42.694;23.346;2023-03-23T07:47:54;21.88;;;15.65;;
77287;SDS011;66345;42.694;23.346;2023-03-23T07:50:20;21.75;;;14.27;;
77287;SDS011;66345;42.694;23.346;2023-03-23T07:52:50;18.42;;;12.93;;
77287;SDS011;66345;42.694;23.346;2023-03-23T07:55:18;17.63;;;12.83;;
77287;SDS011;66345;42.694;23.346;2023-03-23T07:57:44;23.50;;;15.00;;
77287;SDS011;66345;42.694;23.346;2023-03-23T08:00:12;19.88;;;14.48;;
77287;SDS011;66345;42.694;23.346;2023-03-23T08:02:45;22.13;;;15.23;;
77287;SDS011;66345;42.694;23.346;2023-03-23T08:05:13;24.95;;;16.52;;
77287;SDS011;66345;42.694;23.346;2023-03-23T08:07:40;22.57;;;16.23;;
77287;SDS011;66345;42.694;23.346;2023-03-23T08:10:06;23.13;;;15.68;;
77287;SDS011;66345;42.694;23.346;2023-03-23T08:12:36;20.42;;;15.60;;
77287;SDS011;66345;42.694;23.346;2023-03-23T08:15:02;20.00;;;14.87;;
77287;SDS011;66345;42.694;23.346;2023-03-23T08:17:28;23.40;;;14.95;;
77287;SDS011;66345;42.694;23.346;2023-03-23T08:19:54;23.40;;;14.97;;
77287;SDS011;66345;42.694;23.346;2023-03-23T08:22:19;21.30;;;15.50;;
77287;SDS011;66345;42.694;23.346;2023-03-23T08:24:46;23.73;;;15.47;;
77287;SDS011;66345;42.694;23.346;2023-03-23T08:27:11;17.88;;;13.73;;
77287;SDS011;66345;42.694;23.346;2023-03-23T08:29:37;20.17;;;14.83;;
77287;SDS011;66345;42.694;23.346;2023-03-23T08:32:03;25.00;;;15.73;;
77287;SDS011;66345;42.694;23.346;2023-03-23T08:34:29;19.20;;;15.10;;
77287;SDS011;66345;42.694;23.346;2023-03-23T08:36:56;22.10;;;14.98;;
77287;SDS011;66345;42.694;23.346;2023-03-23T08:39:21;22.65;;;16.17;;
77287;SDS011;66345;42.694;23.346;2023-03-23T08:41:48;26.97;;;17.90;;
77287;SDS011;66345;42.694;23.346;2023-03-23T08:44:14;21.15;;;15.20;;
77287;SDS011;66345;42.694;23.346;2023-03-23T08:46:40;19.52;;;15.18;;
77287;SDS011;66345;42.694;23.346;2023-03-23T08:49:06;20.98;;;13.25;;
77287;SDS011;66345;42.694;23.346;2023-03-23T08:51:32;15.73;;;11.53;;
77287;SDS011;66345;42.694;23.346;2023-03-23T08:53:58;17.93;;;11.80;;
77287;SDS011;66345;42.694;23.346;2023-03-23T08:56:24;17.63;;;11.48;;
77287;SDS011;66345;42.694;23.346;2023-03-23T08:58:49;14.13;;;10.60;;
77287;SDS011;66345;42.694;23.346;2023-03-23T09:01:15;12.93;;;9.20;;
77287;SDS011;66345;42.694;23.346;2023-03-23T09:03:41;9.63;;;7.55;;
77287;SDS011;66345;42.694;23.346;2023-03-23T09:06:07;11.43;;;7.10;;
77287;SDS011;66345;42.694;23.346;2023-03-23T09:08:34;12.47;;;7.93;;
77287;SDS011;66345;42.694;23.346;2023-03-23T09:11:04;9.10;;;5.82;;
77287;SDS011;66345;42.694;23.346;2023-03-23T09:13:32;9.63;;;6.13;;
77287;SDS011;66345;42.694;23.346;2023-03-23T09:15:58;9.75;;;5.80;;
77287;SDS011;66345;42.694;23.346;2023-03-23T09:18:23;7.97;;;5.70;;
77287;SDS011;66345;42.694;23.346;2023-03-23T09:20:50;9.30;;;6.25;;
77287;SDS011;66345;42.694;23.346;2023-03-23T09:23:16;8.57;;;6.30;;
77287;SDS011;66345;42.694;23.346;2023-03-23T09:25:42;7.95;;;6.00;;
77287;SDS011;66345;42.694;23.346;2023-03-23T09:28:08;9.68;;;6.40;;
77287;SDS011;66345;42.694;23.346;2023-03-23T09:30:34;8.87;;;6.10;;
77287;SDS011;66345;42.694;23.346;2023-03-23T09:33:01;8.80;;;6.40;;
77287;SDS011;66345;42.694;23.346;2023-03-23T09:35:28;7.63;;;5.50;;
77287;SDS011;66345;42.694;23.346;2023-03-23T09:37:56;8.43;;;5.80;;
77287;SDS011;66345;42.694;23.346;2023-03-23T09:40:28;8.85;;;5.97;;
77287;SDS011;66345;42.694;23.346;2023-03-23T09:45:51;10.05;;;6.57;;
77287;SDS011;66345;42.694;23.346;2023-03-23T09:51:21;10.23;;;5.32;;
77287;SDS011;66345;42.694;23.346;2023-03-23T09:54:19;9.95;;;5.60;;
77287;SDS011;66345;42.694;23.346;2023-03-23T09:56:50;7.40;;;4.87;;
77287;SDS011;66345;42.694;23.346;2023-03-23T10:02:13;7.25;;;4.80;;
77287;SDS011;66345;42.694;23.346;2023-03-23T10:04:49;7.18;;;4.68;;
77287;SDS011;66345;42.694;23.346;2023-03-23T10:07:20;8.07;;;4.70;;
77287;SDS011;66345;42.694;23.346;2023-03-23T10:09:50;7.87;;;5.13;;
77287;SDS011;66345;42.694;23.346;2023-03-23T10:12:23;9.50;;;5.47;;
77287;SDS011;66345;42.694;23.346;2023-03-23T10:17:34;10.65;;;6.18;;
77287;SDS011;66345;42.694;23.346;2023-03-23T10:20:09;10.55;;;6.75;;
77287;SDS011;66345;42.694;23.346;2023-03-23T10:22:53;10.17;;;6.40;;
77287;SDS011;66345;42.694;23.346;2023-03-23T10:25:29;9.35;;;5.97;;
77287;SDS011;66345;42.694;23.346;2023-03-23T10:28:08;9.40;;;5.88;;
77287;SDS011;66345;42.694;23.346;2023-03-23T10:30:38;9.57;;;7.10;;
77287;SDS011;66345;42.694;23.346;2023-03-23T10:36:05;8.90;;;6.47;;
77287;SDS011;66345;42.694;23.346;2023-03-23T10:38:40;10.05;;;6.70;;
77287;SDS011;66345;42.694;23.346;2023-03-23T10:41:13;9.48;;;6.90;;
77287;SDS011;66345;42.694;23.346;2023-03-23T10:43:41;8.85;;;6.07;;
77287;SDS011;66345;42.694;23.346;2023-03-23T10:49:02;8.10;;;5.87;;
77287;SDS011;66345;42.694;23.346;2023-03-23T10:51:37;12.77;;;8.57;;
77287;SDS011;66345;42.694;23.346;2023-03-23T10:54:05;8.10;;;5.90;;
77287;SDS011;66345;42.694;23.346;2023-03-23T10:56:38;8.85;;;5.47;;
77287;SDS011;66345;42.694;23.346;2023-03-23T11:01:48;8.10;;;5.50;;
77287;SDS011;66345;42.694;23.346;2023-03-23T11:04:17;10.60;;;6.32;;
77287;SDS011;66345;42.694;23.346;2023-03-23T11:06:48;11.98;;;5.78;;
77287;SDS011;66345;42.694;23.346;2023-03-23T11:09:18;10.50;;;5.20;;
77287;SDS011;66345;42.694;23.346;2023-03-23T11:11:52;8.80;;;5.05;;
77287;SDS011;66345;42.694;23.346;2023-03-23T11:14:33;9.03;;;5.57;;
77287;SDS011;66345;42.694;23.346;2023-03-23T11:17:04;8.48;;;5.18;;
77287;SDS011;66345;42.694;23.346;2023-03-23T11:19:45;11.57;;;5.20;;
77287;SDS011;66345;42.694;23.346;2023-03-23T11:22:15;9.80;;;5.40;;
77287;SDS011;66345;42.694;23.346;2023-03-23T11:24:47;9.48;;;5.60;;
77287;SDS011;66345;42.694;23.346;2023-03-23T11:27:17;12.02;;;6.07;;
77287;SDS011;66345;42.694;23.346;2023-03-23T11:29:53;10.32;;;5.50;;
77287;SDS011;66345;42.694;23.346;2023-03-23T11:32:24;8.02;;;5.20;;
77287;SDS011;66345;42.694;23.346;2023-03-23T11:34:57;9.37;;;5.33;;
77287;SDS011;66345;42.694;23.346;2023-03-23T11:42:37;9.40;;;4.85;;
77287;SDS011;66345;42.694;23.346;2023-03-23T11:45:20;8.63;;;5.10;;
77287;SDS011;66345;42.694;23.346;2023-03-23T11:50:53;8.00;;;4.93;;
77287;SDS011;66345;42.694;23.346;2023-03-23T11:53:28;10.00;;;5.13;;
77287;SDS011;66345;42.694;23.346;2023-03-23T11:59:11;9.38;;;4.95;;
77287;SDS011;66345;42.694;23.346;2023-03-23T12:01:50;8.40;;;4.73;;
77287;SDS011;66345;42.694;23.346;2023-03-23T12:09:52;8.90;;;5.30;;
77287;SDS011;66345;42.694;23.346;2023-03-23T12:12:50;8.10;;;5.00;;
77287;SDS011;66345;42.694;23.346;2023-03-23T12:15:32;8.97;;;5.37;;
77287;SDS011;66345;42.694;23.346;2023-03-23T12:25:52;8.15;;;4.75;;
77287;SDS011;66345;42.694;23.346;2023-03-23T12:28:32;9.83;;;4.83;;
77287;SDS011;66345;42.694;23.346;2023-03-23T12:34:11;8.65;;;5.20;;
77287;SDS011;66345;42.694;23.346;2023-03-23T12:36:56;8.38;;;5.00;;
77287;SDS011;66345;42.694;23.346;2023-03-23T12:47:32;9.47;;;5.37;;
77287;SDS011;66345;42.694;23.346;2023-03-23T12:50:07;6.93;;;4.07;;
77287;SDS011;66345;42.694;23.346;2023-03-23T12:52:37;7.82;;;4.10;;
77287;SDS011;66345;42.694;23.346;2023-03-23T12:57:51;7.93;;;3.88;;
77287;SDS011;66345;42.694;23.346;2023-03-23T13:00:26;7.55;;;4.53;;
77287;SDS011;66345;42.694;23.346;2023-03-23T13:05:48;7.97;;;4.10;;
77287;SDS011;66345;42.694;23.346;2023-03-23T13:08:28;8.80;;;4.60;;
77287;SDS011;66345;42.694;23.346;2023-03-23T13:11:00;9.05;;;4.40;;
77287;SDS011;66345;42.694;23.346;2023-03-23T13:13:44;9.10;;;4.85;;
77287;SDS011;66345;42.694;23.346;2023-03-23T13:21:53;9.30;;;5.18;;
77287;SDS011;66345;42.694;23.346;2023-03-23T13:24:34;8.65;;;4.72;;
77287;SDS011;66345;42.694;23.346;2023-03-23T13:27:04;7.68;;;4.53;;
77287;SDS011;66345;42.694;23.346;2023-03-23T13:29:33;8.50;;;5.22;;
77287;SDS011;66345;42.694;23.346;2023-03-23T13:32:12;7.15;;;4.10;;
77287;SDS011;66345;42.694;23.346;2023-03-23T13:34:42;7.65;;;4.32;;
77287;SDS011;66345;42.694;23.346;2023-03-23T13:37:19;7.70;;;4.50;;
77287;SDS011;66345;42.694;23.346;2023-03-23T13:42:33;6.75;;;3.97;;
77287;SDS011;66345;42.694;23.346;2023-03-23T13:45:18;7.75;;;4.50;;
77287;SDS011;66345;42.694;23.346;2023-03-23T13:48:04;7.47;;;4.43;;
77287;SDS011;66345;42.694;23.346;2023-03-23T13:50:49;8.30;;;4.32;;
77287;SDS011;66345;42.694;23.346;2023-03-23T13:53:22;12.45;;;4.97;;
77287;SDS011;66345;42.694;23.346;2023-03-23T13:55:52;8.75;;;4.38;;
77287;SDS011;66345;42.694;23.346;2023-03-23T13:58:52;8.38;;;4.47;;
77287;SDS011;66345;42.694;23.346;2023-03-23T14:01:38;9.25;;;4.45;;
77287;SDS011;66345;42.694;23.346;2023-03-23T14:04:07;7.13;;;4.22;;
77287;SDS011;66345;42.694;23.346;2023-03-23T14:06:39;6.93;;;4.28;;
77287;SDS011;66345;42.694;23.346;2023-03-23T14:09:19;9.05;;;4.60;;
77287;SDS011;66345;42.694;23.346;2023-03-23T14:12:03;8.40;;;4.43;;
77287;SDS011;66345;42.694;23.346;2023-03-23T14:15:11;8.18;;;4.25;;
77287;SDS011;66345;42.694;23.346;2023-03-23T14:17:30;7.53;;;4.20;;
77287;SDS011;66345;42.694;23.346;2023-03-23T14:19:58;7.47;;;4.50;;
77287;SDS011;66345;42.694;23.346;2023-03-23T14:22:27;8.95;;;4.72;;
77287;SDS011;66345;42.694;23.346;2023-03-23T14:25:30;8.23;;;4.78;;
77287;SDS011;66345;42.694;23.346;2023-03-23T14:27:52;10.38;;;4.40;;
77287;SDS011;66345;42.694;23.346;2023-03-23T14:30:19;10.35;;;4.80;;
77287;SDS011;66345;42.694;23.346;2023-03-23T14:32:47;10.05;;;4.90;;
77287;SDS011;66345;42.694;23.346;2023-03-23T14:35:19;10.20;;;4.63;;
77287;SDS011;66345;42.694;23.346;2023-03-23T14:37:46;7.45;;;4.40;;
77287;SDS011;66345;42.694;23.346;2023-03-23T14:40:13;7.57;;;4.00;;
77287;SDS011;66345;42.694;23.346;2023-03-23T14:42:41;6.85;;;4.25;;
77287;SDS011;66345;42.694;23.346;2023-03-23T14:45:09;7.32;;;4.38;;
77287;SDS011;66345;42.694;23.346;2023-03-23T14:47:40;7.80;;;3.90;;
77287;SDS011;66345;42.694;23.346;2023-03-23T14:50:26;7.22;;;4.20;;
77287;SDS011;66345;42.694;23.346;2023-03-23T14:53:00;8.35;;;4.18;;
77287;SDS011;66345;42.694;23.346;2023-03-23T14:55:34;9.38;;;3.97;;
77287;SDS011;66345;42.694;23.346;2023-03-23T14:58:07;7.70;;;4.20;;
77287;SDS011;66345;42.694;23.346;2023-03-23T15:00:34;7.03;;;4.53;;
77287;SDS011;66345;42.694;23.346;2023-03-23T15:03:03;7.97;;;4.00;;
77287;SDS011;66345;42.694;23.346;2023-03-23T15:05:34;8.65;;;4.43;;
77287;SDS011;66345;42.694;23.346;2023-03-23T15:08:03;8.18;;;4.65;;
77287;SDS011;66345;42.694;23.346;2023-03-23T15:10:56;7.10;;;4.25;;
77287;SDS011;66345;42.694;23.346;2023-03-23T15:13:34;11.32;;;4.90;;
77287;SDS011;66345;42.694;23.346;2023-03-23T15:16:02;8.63;;;4.57;;
77287;SDS011;66345;42.694;23.346;2023-03-23T15:18:37;8.60;;;4.60;;
77287;SDS011;66345;42.694;23.346;2023-03-23T15:21:07;7.15;;;4.38;;
77287;SDS011;66345;42.694;23.346;2023-03-23T15:24:19;9.27;;;4.47;;
77287;SDS011;66345;42.694;23.346;2023-03-23T15:26:49;8.55;;;4.57;;
77287;SDS011;66345;42.694;23.346;2023-03-23T15:29:18;8.73;;;5.00;;
77287;SDS011;66345;42.694;23.346;2023-03-23T15:31:50;9.38;;;4.72;;
77287;SDS011;66345;42.694;23.346;2023-03-23T15:34:20;11.13;;;5.82;;
77287;SDS011;66345;42.694;23.346;2023-03-23T15:36:55;7.63;;;4.53;;
77287;SDS011;66345;42.694;23.346;2023-03-23T15:39:23;9.50;;;4.70;;
77287;SDS011;66345;42.694;23.346;2023-03-23T15:41:50;8.02;;;4.70;;
77287;SDS011;66345;42.694;23.346;2023-03-23T15:44:20;8.50;;;4.53;;
77287;SDS011;66345;42.694;23.346;2023-03-23T15:46:49;11.00;;;4.85;;
77287;SDS011;66345;42.694;23.346;2023-03-23T15:49:16;9.75;;;4.57;;
77287;SDS011;66345;42.694;23.346;2023-03-23T15:51:42;9.25;;;4.80;;
77287;SDS011;66345;42.694;23.346;2023-03-23T15:54:12;9.53;;;4.37;;
77287;SDS011;66345;42.694;23.346;2023-03-23T15:56:41;10.23;;;4.90;;
77287;SDS011;66345;42.694;23.346;2023-03-23T15:59:08;8.65;;;4.68;;
77287;SDS011;66345;42.694;23.346;2023-03-23T16:01:36;8.23;;;4.38;;